createdAt,value
2017-12-02T00:00:50.226Z,44.90
2017-12-02T00:05:51.976Z,43.17
2017-12-02T00:10:53.755Z,43.20
2017-12-02T00:15:56.141Z,33.57
2017-12-02T00:20:58.060Z,40.13
2017-12-02T00:25:59.898Z,36.80
2017-12-02T00:31:01.623Z,42.83
2017-12-02T00:36:04.111Z,39.77
2017-12-02T00:41:06.400Z,36.70
2017-12-02T00:46:08.133Z,39.07
2017-12-02T00:51:10.771Z,38.73
2017-12-02T00:56:13.319Z,39.33
2017-12-02T01:01:15.048Z,41.70
2017-12-02T01:06:16.830Z,43.83
2017-12-02T01:11:18.644Z,48.33
2017-12-02T01:16:20.402Z,45.97
2017-12-02T01:21:22.154Z,46.00
2017-12-02T01:26:23.902Z,52.77
2017-12-02T01:31:25.610Z,47.33
2017-12-02T01:36:27.362Z,54.23
2017-12-02T01:41:29.143Z,52.07
2017-12-02T01:46:30.917Z,49.97
2017-12-02T01:51:32.647Z,48.87
2017-12-02T01:56:34.381Z,42.30
2017-12-02T02:01:38.155Z,46.37
2017-12-02T02:06:40.357Z,39.03
2017-12-02T02:11:45.105Z,44.07
2017-12-02T02:16:48.895Z,46.27
2017-12-02T02:21:51.331Z,55.50
2017-12-02T02:26:53.945Z,50.50
2017-12-02T02:31:55.957Z,44.33
2017-12-02T02:36:58.153Z,48.23
2017-12-02T02:42:02.020Z,48.93
2017-12-02T02:47:03.741Z,42.43
2017-12-02T02:52:05.571Z,49.07
2017-12-02T02:57:08.279Z,42.87
2017-12-02T03:02:10.009Z,45.30
2017-12-02T03:07:11.722Z,44.73
2017-12-02T03:12:13.560Z,38.13
2017-12-02T03:17:15.400Z,47.83
2017-12-02T03:22:17.173Z,46.60
2017-12-02T03:27:18.971Z,45.93
2017-12-02T03:32:20.743Z,52.30
2017-12-02T03:37:23.314Z,47.13
2017-12-02T03:42:25.173Z,44.57
2017-12-02T03:47:27.776Z,39.47
2017-12-02T03:52:29.560Z,39.60
2017-12-02T03:57:31.310Z,38.70
2017-12-02T04:02:33.068Z,35.00
2017-12-02T04:07:34.903Z,59.83
2017-12-02T04:12:36.747Z,49.53
2017-12-02T04:17:38.573Z,32.27
2017-12-02T04:22:41.502Z,30.27
2017-12-02T04:27:44.422Z,31.87
2017-12-02T04:32:47.068Z,35.00
2017-12-02T04:37:49.119Z,32.77
2017-12-02T04:42:50.918Z,30.03
2017-12-02T04:47:52.798Z,34.73
2017-12-02T04:52:57.426Z,35.20
2017-12-02T04:57:59.310Z,34.07
2017-12-02T05:03:01.131Z,32.43
2017-12-02T05:08:03.118Z,32.03
2017-12-02T05:13:04.895Z,37.67
2017-12-02T05:18:06.687Z,34.00
2017-12-02T05:23:08.502Z,30.53
2017-12-02T05:28:11.410Z,33.90
2017-12-02T05:33:13.688Z,37.63
2017-12-02T05:38:20.246Z,28.70
2017-12-02T05:43:22.122Z,31.80
2017-12-02T05:48:23.862Z,31.00
2017-12-02T05:53:26.351Z,39.47
2017-12-02T05:58:28.238Z,35.20
2017-12-02T06:03:30.075Z,33.10
2017-12-02T06:08:31.910Z,36.97
2017-12-02T06:13:34.526Z,34.53
2017-12-02T06:18:37.090Z,34.43
2017-12-02T06:23:39.526Z,33.13
2017-12-02T06:28:41.310Z,36.70
2017-12-02T06:33:43.095Z,27.43
2017-12-02T06:38:44.982Z,29.07
2017-12-02T06:43:46.777Z,29.83
2017-12-02T06:48:49.308Z,27.17
2017-12-02T06:53:51.943Z,23.77
2017-12-02T06:58:53.759Z,29.03
2017-12-02T07:03:55.598Z,32.00
2017-12-02T07:08:57.425Z,33.77
2017-12-02T07:13:59.952Z,31.27
2017-12-02T07:19:01.806Z,33.40
2017-12-02T07:24:03.708Z,32.37
2017-12-02T07:29:05.575Z,30.67
2017-12-02T07:34:07.353Z,34.70
2017-12-02T07:39:09.253Z,37.07
2017-12-02T07:44:11.829Z,31.30
2017-12-02T07:49:13.604Z,33.40
2017-12-02T07:54:15.414Z,33.27
2017-12-02T07:59:17.232Z,30.90
2017-12-02T08:04:19.132Z,33.80
2017-12-02T08:09:20.905Z,34.47
2017-12-02T08:14:22.701Z,31.30
2017-12-02T08:19:24.499Z,34.07
2017-12-02T08:24:26.266Z,29.17
2017-12-02T08:29:28.116Z,27.80
2017-12-02T08:34:29.930Z,27.20
2017-12-02T08:39:31.739Z,28.17
2017-12-02T08:44:33.547Z,27.87
2017-12-02T08:49:36.214Z,31.33
2017-12-02T08:54:37.989Z,29.30
2017-12-02T08:59:41.566Z,26.17
2017-12-02T09:04:43.474Z,27.70
2017-12-02T09:09:45.319Z,31.70
2017-12-02T09:14:47.154Z,26.30
2017-12-02T09:19:48.948Z,27.13
2017-12-02T09:24:50.704Z,25.27
2017-12-02T09:29:52.587Z,25.47
2017-12-02T09:34:54.389Z,25.40
2017-12-02T09:39:56.211Z,25.50
2017-12-02T09:44:58.011Z,31.80
2017-12-02T09:49:59.806Z,23.77
2017-12-02T09:55:01.947Z,27.20
2017-12-02T10:00:04.221Z,29.70
2017-12-02T10:05:05.978Z,33.47
2017-12-02T10:10:07.755Z,27.57
2017-12-02T10:15:14.908Z,28.80
2017-12-02T10:20:16.752Z,31.60
2017-12-02T10:25:18.888Z,31.13
2017-12-02T10:30:21.470Z,29.07
2017-12-02T10:35:23.410Z,30.30
2017-12-02T10:40:27.579Z,31.53
2017-12-02T10:45:29.503Z,34.17
2017-12-02T10:50:31.295Z,30.33
2017-12-02T10:55:33.133Z,29.77
2017-12-02T11:00:34.862Z,29.80
2017-12-02T11:05:36.573Z,29.77
2017-12-02T11:10:38.335Z,27.50
2017-12-02T11:15:41.015Z,30.17
2017-12-02T11:20:42.945Z,29.50
2017-12-02T11:25:44.737Z,29.97
2017-12-02T11:30:47.403Z,31.80
2017-12-02T11:35:51.071Z,28.20
2017-12-02T11:40:57.003Z,29.70
2017-12-02T11:46:03.522Z,33.30
2017-12-02T11:51:06.427Z,29.00
2017-12-02T11:56:08.140Z,31.00
2017-12-02T12:01:09.982Z,32.60
2017-12-02T12:06:11.721Z,27.90
2017-12-02T12:11:14.249Z,28.23
2017-12-02T12:16:16.067Z,23.07
2017-12-02T12:21:17.851Z,26.20
2017-12-02T12:26:20.355Z,22.27
2017-12-02T12:31:22.597Z,25.20
2017-12-02T12:36:24.468Z,21.00
2017-12-02T12:41:26.247Z,25.00
2017-12-02T12:46:27.989Z,25.33
2017-12-02T12:51:30.494Z,23.57
2017-12-02T12:56:32.969Z,22.27
2017-12-02T13:01:34.779Z,23.23
2017-12-02T13:06:36.491Z,25.03
2017-12-02T13:11:38.240Z,25.27
2017-12-02T13:16:40.418Z,30.03
2017-12-02T13:21:43.051Z,24.33
2017-12-02T13:26:44.893Z,26.93
2017-12-02T13:31:46.708Z,22.63
2017-12-02T13:36:48.431Z,23.73
2017-12-02T13:41:50.268Z,24.87
2017-12-02T13:46:52.045Z,28.63
2017-12-02T13:51:54.565Z,22.90
2017-12-02T13:56:56.496Z,26.15
2017-12-02T14:01:58.215Z,21.43
2017-12-02T14:06:59.999Z,22.27
2017-12-02T14:12:01.823Z,23.80
2017-12-02T14:17:03.625Z,25.40
2017-12-02T14:22:05.378Z,27.83
2017-12-02T14:27:07.195Z,23.80
2017-12-02T14:32:10.009Z,24.90
2017-12-02T14:37:11.808Z,29.37
2017-12-02T14:42:13.555Z,24.17
2017-12-02T14:47:15.296Z,25.83
2017-12-02T14:52:17.080Z,25.60
2017-12-02T14:57:19.621Z,26.47
2017-12-02T15:02:21.381Z,25.10
2017-12-02T15:07:23.066Z,26.87
2017-12-02T15:12:24.950Z,25.93
2017-12-02T15:17:26.798Z,23.27
2017-12-02T15:22:29.295Z,24.47
2017-12-02T15:27:31.863Z,22.93
2017-12-02T15:32:33.854Z,28.33
2017-12-02T15:37:35.623Z,24.50
2017-12-02T15:42:38.577Z,25.80
2017-12-02T15:47:41.242Z,25.53
2017-12-02T15:52:43.118Z,27.83
2017-12-02T15:57:46.482Z,25.73
2017-12-02T16:02:49.673Z,22.70
2017-12-02T16:07:51.760Z,26.20
2017-12-02T16:12:55.535Z,23.10
2017-12-02T16:17:57.890Z,24.50
2017-12-02T16:23:01.373Z,28.83
2017-12-02T16:28:03.612Z,53.10
2017-12-02T16:33:05.440Z,29.73
2017-12-02T16:38:08.290Z,29.87
2017-12-02T16:43:10.289Z,25.70
2017-12-02T16:48:27.462Z,27.17
2017-12-02T16:53:30.912Z,27.23
2017-12-02T16:58:36.266Z,37.37
2017-12-02T17:03:39.010Z,77.10
2017-12-02T17:08:40.799Z,29.27
2017-12-02T17:13:42.573Z,28.23
2017-12-02T17:18:44.341Z,34.97
2017-12-02T17:23:46.091Z,30.83
2017-12-02T17:28:47.879Z,27.33
2017-12-02T17:33:49.663Z,27.07
2017-12-02T17:38:52.296Z,30.20
2017-12-02T17:43:54.678Z,30.50
2017-12-02T17:48:56.577Z,35.40
2017-12-02T17:53:58.327Z,33.77
2017-12-02T17:59:00.083Z,32.70
2017-12-02T18:04:01.827Z,42.10
2017-12-02T18:09:04.915Z,38.53
2017-12-02T18:14:11.368Z,40.23
2017-12-02T18:19:14.045Z,34.20
2017-12-02T18:24:15.874Z,37.10
2017-12-02T18:29:18.437Z,38.50
2017-12-02T18:34:20.263Z,30.63
2017-12-02T18:39:23.074Z,28.53
2017-12-02T18:44:24.768Z,31.70
2017-12-02T18:49:26.476Z,31.57
2017-12-02T18:54:28.219Z,29.50
2017-12-02T18:59:31.154Z,31.63
2017-12-02T19:04:33.067Z,30.30
2017-12-02T19:09:34.918Z,33.83
2017-12-02T19:14:36.760Z,30.67
2017-12-02T19:19:39.382Z,35.10
2017-12-02T19:24:41.140Z,40.07
2017-12-02T19:29:42.947Z,35.80
2017-12-02T19:34:44.756Z,39.57
2017-12-02T19:39:46.530Z,31.87
2017-12-02T19:44:48.482Z,34.60
2017-12-02T19:49:50.422Z,39.83
2017-12-02T19:54:52.396Z,42.30
2017-12-02T19:59:54.589Z,48.07
2017-12-02T20:04:57.481Z,45.80
2017-12-02T20:09:59.344Z,54.20
2017-12-02T20:15:01.195Z,68.20
2017-12-02T20:20:02.984Z,49.77
2017-12-02T20:25:05.659Z,58.00
2017-12-02T20:30:07.445Z,58.20
2017-12-02T20:35:12.830Z,58.37
2017-12-02T20:40:14.754Z,65.93
2017-12-02T20:45:16.516Z,60.97
2017-12-02T20:50:18.415Z,66.97
2017-12-02T20:55:20.180Z,66.47
2017-12-02T21:00:23.160Z,70.87
2017-12-02T21:05:25.960Z,68.73
2017-12-02T21:10:28.467Z,66.20
2017-12-02T21:15:30.979Z,65.30
2017-12-02T21:20:33.351Z,65.20
2017-12-02T21:25:35.722Z,64.10
2017-12-02T21:30:37.673Z,66.50
2017-12-02T21:35:39.855Z,61.67
2017-12-02T21:40:43.036Z,69.40
2017-12-02T21:45:44.881Z,63.63
2017-12-02T21:50:47.386Z,62.63
2017-12-02T21:55:49.147Z,57.10
2017-12-02T22:00:51.074Z,60.60
2017-12-02T22:05:52.845Z,61.60
2017-12-02T22:10:54.675Z,64.37
2017-12-02T22:15:56.501Z,60.53
2017-12-02T22:20:58.316Z,65.17
2017-12-02T22:26:00.154Z,69.90
2017-12-02T22:31:02.422Z,59.10
2017-12-02T22:36:04.954Z,61.50
2017-12-02T22:41:06.748Z,58.13
2017-12-02T22:46:09.321Z,56.50
2017-12-02T22:51:11.210Z,59.60
2017-12-02T22:56:13.045Z,57.60
2017-12-02T23:01:14.803Z,55.83
2017-12-02T23:06:16.700Z,52.73
2017-12-02T23:11:18.501Z,57.67
2017-12-02T23:16:20.344Z,62.03
2017-12-02T23:21:22.189Z,54.43
2017-12-02T23:26:24.095Z,50.13
2017-12-02T23:31:25.956Z,50.27
2017-12-02T23:36:27.777Z,55.13
2017-12-02T23:41:29.534Z,58.83
2017-12-02T23:46:31.522Z,57.40
2017-12-02T23:51:33.275Z,62.33
2017-12-02T23:56:35.019Z,53.50
